Time;durP1;ratioP1;P1;durP2;ratioP2;P2;SDS_P1;SDS_P2;PMS_P1;PMS_P2;Temp;Humidity;BMP_temperature;BMP_pressure;BME280_temperature;BME280_humidity;BME280_pressure;Samples;Min_cycle;Max_cycle;Signal;HPM_P1;HPM_P2
2022/03/29 00:01:19;;;;;;;67.97;42.17;;;9.20;99.90;;;;;;4949110;29;20081;-72
2022/03/29 00:03:46;;;;;;;73.57;39.90;;;9.20;99.90;;;;;;4948295;28;20150;-70
2022/03/29 00:06:13;;;;;;;69.00;42.20;;;9.20;99.90;;;;;;4937264;29;20046;-70
2022/03/29 00:08:40;;;;;;;68.68;39.97;;;9.10;99.90;;;;;;4938261;29;20130;-69
2022/03/29 00:11:07;;;;;;;71.80;40.13;;;9.10;99.90;;;;;;4951783;29;20051;-69
2022/03/29 00:13:34;;;;;;;62.47;38.42;;;9.10;99.90;;;;;;4949044;28;20043;-71
2022/03/29 00:16:01;;;;;;;69.38;39.85;;;9.10;99.90;;;;;;4948960;29;20047;-69
2022/03/29 00:18:28;;;;;;;69.70;40.20;;;9.10;99.90;;;;;;4952011;29;20125;-69
2022/03/29 00:20:55;;;;;;;74.75;40.88;;;9.10;99.90;;;;;;4938665;29;20059;-77
2022/03/29 00:23:22;;;;;;;61.53;38.72;;;9.10;99.90;;;;;;4948672;29;20058;-69
2022/03/29 00:25:49;;;;;;;72.32;40.78;;;9.10;99.90;;;;;;4964521;28;20056;-70
2022/03/29 00:28:16;;;;;;;67.82;40.67;;;9.10;99.90;;;;;;4947710;29;20055;-70
2022/03/29 00:30:43;;;;;;;68.47;39.08;;;9.10;99.90;;;;;;4950317;29;20561;-69
2022/03/29 00:33:10;;;;;;;79.50;41.00;;;9.00;99.90;;;;;;4942268;29;20399;-69
2022/03/29 00:35:36;;;;;;;72.55;42.95;;;8.90;99.90;;;;;;4941404;29;20491;-72
2022/03/29 00:38:03;;;;;;;75.30;39.13;;;9.00;99.90;;;;;;4939900;29;20051;-69
2022/03/29 00:40:30;;;;;;;65.50;40.03;;;9.00;99.90;;;;;;4953592;28;20055;-69
2022/03/29 00:42:57;;;;;;;67.28;37.80;;;9.10;99.90;;;;;;4936101;29;20056;-69
2022/03/29 00:45:24;;;;;;;67.70;38.85;;;9.10;99.90;;;;;;4961880;28;20760;-69
2022/03/29 00:47:51;;;;;;;73.35;40.35;;;9.00;99.90;;;;;;4963529;28;20054;-69
2022/03/29 00:50:18;;;;;;;67.13;41.78;;;9.00;99.90;;;;;;4943980;29;20059;-70
2022/03/29 00:52:45;;;;;;;65.95;40.65;;;9.00;99.90;;;;;;4950838;29;20047;-68
2022/03/29 00:55:12;;;;;;;72.95;41.08;;;9.00;99.90;;;;;;4956170;28;20055;-68
2022/03/29 00:57:44;;;;;;;70.57;41.50;;;9.00;99.90;;;;;;4957311;28;20521;-69
2022/03/29 01:00:16;;;;;;;70.70;41.13;;;8.90;99.90;;;;;;4927749;29;20447;-70
2022/03/29 01:02:43;;;;;;;68.70;39.67;;;8.90;99.90;;;;;;4953711;29;20551;-70
2022/03/29 01:05:11;;;;;;;76.55;39.28;;;8.90;99.90;;;;;;4955873;28;20455;-70
2022/03/29 01:07:39;;;;;;;74.05;41.95;;;9.00;99.90;;;;;;4955817;28;20039;-70
2022/03/29 01:10:06;;;;;;;74.10;40.67;;;9.00;99.90;;;;;;4969820;28;20058;-70
2022/03/29 01:12:33;;;;;;;72.78;39.47;;;9.00;99.90;;;;;;4942973;29;20114;-70
2022/03/29 01:15:03;;;;;;;72.47;41.83;;;9.00;99.90;;;;;;4967031;28;20432;-69
2022/03/29 01:17:39;;;;;;;68.70;41.72;;;9.10;99.90;;;;;;4936283;29;20051;-69
2022/03/29 01:20:18;;;;;;;75.68;44.78;;;9.10;99.90;;;;;;4937831;29;20047;-69
2022/03/29 01:22:46;;;;;;;72.90;39.92;;;9.00;99.90;;;;;;4967801;28;20054;-70
2022/03/29 01:25:34;;;;;;;65.78;40.50;;;9.10;99.90;;;;;;4934688;29;20090;-70
2022/03/29 01:28:02;;;;;;;71.80;42.67;;;9.10;99.90;;;;;;4938017;29;20480;-70
2022/03/29 01:30:29;;;;;;;74.13;41.92;;;9.10;99.90;;;;;;4933477;29;20488;-70
2022/03/29 01:32:55;;;;;;;73.55;42.85;;;9.10;99.90;;;;;;4940770;29;20047;-70
2022/03/29 01:35:23;;;;;;;78.00;42.35;;;9.10;99.90;;;;;;4948368;29;20122;-69
2022/03/29 01:37:51;;;;;;;78.47;44.10;;;9.10;99.90;;;;;;4953821;28;20130;-72
2022/03/29 01:40:19;;;;;;;80.45;48.08;;;9.10;99.90;;;;;;4949272;29;20051;-70
2022/03/29 01:42:51;;;;;;;77.07;43.95;;;9.00;99.90;;;;;;4943045;29;20043;-71
2022/03/29 01:45:21;;;;;;;79.78;43.35;;;9.00;99.90;;;;;;4939545;29;20431;-70
2022/03/29 01:47:48;;;;;;;81.88;45.70;;;8.90;99.90;;;;;;4960139;28;20054;-69
2022/03/29 01:50:15;;;;;;;81.95;44.67;;;8.90;99.90;;;;;;4947541;28;20339;-72
2022/03/29 01:52:45;;;;;;;81.32;44.40;;;8.90;99.90;;;;;;4949653;29;20055;-70
2022/03/29 01:55:12;;;;;;;;;;;9.00;99.90;;;;;;4938483;29;20098;-69
2022/03/29 01:57:39;;;;;;;81.82;43.50;;;9.00;99.90;;;;;;4949034;29;19922;-70
2022/03/29 02:02:53;;;;;;;70.57;40.47;;;9.00;99.90;;;;;;4942812;29;20047;-70
2022/03/29 02:05:20;;;;;;;75.22;44.95;;;9.00;99.90;;;;;;4945003;29;20083;-71
2022/03/29 02:07:47;;;;;;;70.43;42.80;;;9.00;99.90;;;;;;4940604;29;20060;-71
2022/03/29 02:10:18;;;;;;;69.82;40.85;;;8.90;99.90;;;;;;4927938;29;20047;-70
2022/03/29 02:12:45;;;;;;;80.43;43.75;;;8.90;99.90;;;;;;4945029;29;20045;-69
2022/03/29 02:15:12;;;;;;;82.45;40.72;;;8.90;99.90;;;;;;4936120;29;20069;-70
2022/03/29 02:17:40;;;;;;;72.18;40.50;;;8.90;99.90;;;;;;4949841;29;20056;-69
2022/03/29 02:20:07;;;;;;;67.25;38.78;;;8.90;99.90;;;;;;4952505;29;20071;-71
2022/03/29 02:22:34;;;;;;;67.00;36.58;;;8.90;99.90;;;;;;4941371;29;20058;-69
2022/03/29 02:25:03;;;;;;;63.22;38.42;;;8.90;99.90;;;;;;4948954;29;20463;-69
2022/03/29 02:27:30;;;;;;;73.72;41.22;;;8.90;99.90;;;;;;4938344;29;20047;-70
2022/03/29 02:29:56;;;;;;;72.72;41.25;;;8.80;99.90;;;;;;4952824;29;20062;-70
2022/03/29 02:32:23;;;;;;;73.68;40.90;;;8.80;99.90;;;;;;4954225;28;20080;-70
2022/03/29 02:34:50;;;;;;;76.43;42.17;;;8.80;99.90;;;;;;4945815;28;20056;-70
2022/03/29 02:37:17;;;;;;;78.30;44.90;;;8.80;99.90;;;;;;4946799;28;20043;-70
2022/03/29 02:39:44;;;;;;;72.82;41.70;;;8.80;99.90;;;;;;4943129;29;20066;-70
2022/03/29 02:42:11;;;;;;;74.40;44.03;;;8.80;99.90;;;;;;4953995;28;20395;-70
2022/03/29 02:44:37;;;;;;;82.05;42.70;;;8.90;99.90;;;;;;4936196;29;20522;-69
2022/03/29 02:47:04;;;;;;;70.90;41.15;;;8.90;99.90;;;;;;4963052;28;20055;-69
2022/03/29 02:49:32;;;;;;;77.97;42.28;;;9.00;99.90;;;;;;4949955;29;20043;-69
2022/03/29 02:51:58;;;;;;;72.05;41.60;;;9.00;99.90;;;;;;4937617;29;20052;-69
2022/03/29 02:54:25;;;;;;;77.18;44.13;;;9.00;99.90;;;;;;4954677;28;20054;-69
2022/03/29 02:56:52;;;;;;;70.20;42.25;;;9.10;99.90;;;;;;4943067;29;20051;-69
2022/03/29 02:59:19;;;;;;;69.85;39.85;;;9.10;99.90;;;;;;4950322;28;20051;-69
2022/03/29 03:01:46;;;;;;;79.65;45.08;;;9.10;99.90;;;;;;4939497;29;20523;-73
2022/03/29 03:04:14;;;;;;;76.28;43.97;;;9.00;99.90;;;;;;4946646;29;20468;-69
2022/03/29 03:06:42;;;;;;;68.82;40.78;;;9.00;99.90;;;;;;4929516;29;20051;-69
2022/03/29 03:09:09;;;;;;;71.97;41.88;;;9.00;99.90;;;;;;4964340;28;20052;-69
2022/03/29 03:11:36;;;;;;;70.90;40.97;;;9.00;99.90;;;;;;4942230;29;20058;-69
2022/03/29 03:14:03;;;;;;;74.18;41.17;;;8.90;99.90;;;;;;4956840;28;20050;-69
2022/03/29 03:16:30;;;;;;;71.88;41.90;;;9.00;99.90;;;;;;4951483;28;20054;-69
2022/03/29 03:18:57;;;;;;;69.38;39.78;;;8.90;99.90;;;;;;4943921;29;20055;-69
2022/03/29 03:21:23;;;;;;;70.80;41.45;;;8.90;99.90;;;;;;4944989;29;20052;-70
2022/03/29 03:23:51;;;;;;;68.55;40.70;;;8.90;99.90;;;;;;4966442;28;20044;-71
2022/03/29 03:26:17;;;;;;;70.50;40.15;;;8.90;99.90;;;;;;4945248;29;20097;-69
2022/03/29 03:28:44;;;;;;;69.30;37.88;;;8.90;99.90;;;;;;4943243;28;20443;-69
2022/03/29 03:31:11;;;;;;;67.55;39.65;;;8.90;99.90;;;;;;4941397;28;20051;-69
2022/03/29 03:33:38;;;;;;;59.85;37.45;;;8.80;99.90;;;;;;4942769;29;20055;-70
2022/03/29 03:36:08;;;;;;;60.90;35.33;;;8.80;99.90;;;;;;4937930;29;20185;-70
2022/03/29 03:38:35;;;;;;;61.40;35.22;;;8.70;99.90;;;;;;4941968;29;20047;-69
2022/03/29 03:41:02;;;;;;;57.97;35.60;;;8.70;99.90;;;;;;4944309;28;20059;-69
2022/03/29 03:43:29;;;;;;;55.60;32.88;;;8.70;99.90;;;;;;4924268;28;20400;-71
2022/03/29 03:45:56;;;;;;;62.28;32.50;;;8.70;99.90;;;;;;4939864;29;20115;-70
2022/03/29 03:48:23;;;;;;;52.70;32.65;;;8.80;99.90;;;;;;4947848;29;20043;-69
2022/03/29 03:50:50;;;;;;;54.35;35.30;;;8.70;99.90;;;;;;4938180;29;20066;-69
2022/03/29 03:53:17;;;;;;;56.30;34.75;;;8.70;99.90;;;;;;4967919;28;20075;-70
2022/03/29 03:55:44;;;;;;;63.05;34.88;;;8.70;99.90;;;;;;4931044;28;20079;-69
2022/03/29 03:58:13;;;;;;;65.35;35.60;;;8.80;99.90;;;;;;4948537;29;20067;-69
2022/03/29 04:00:40;;;;;;;64.00;34.85;;;8.80;99.90;;;;;;4939788;29;20513;-70
2022/03/29 04:03:09;;;;;;;60.55;35.85;;;8.70;99.90;;;;;;4955213;28;20051;-70
2022/03/29 04:05:36;;;;;;;56.92;33.45;;;8.70;99.90;;;;;;4950752;28;20415;-71
2022/03/29 04:08:03;;;;;;;53.47;32.78;;;8.80;99.90;;;;;;4959621;28;20062;-69
2022/03/29 04:10:31;;;;;;;58.45;32.53;;;8.80;99.90;;;;;;4944004;28;20141;-69
2022/03/29 04:12:57;;;;;;;54.65;32.55;;;8.80;99.90;;;;;;4938151;28;20051;-69
2022/03/29 04:15:24;;;;;;;54.17;32.45;;;8.70;99.90;;;;;;4959187;28;20510;-68
2022/03/29 04:17:51;;;;;;;62.95;32.85;;;8.70;99.90;;;;;;4947679;28;20050;-70
2022/03/29 04:20:18;;;;;;;57.75;32.20;;;8.70;99.90;;;;;;4938404;29;20393;-69
2022/03/29 04:22:45;;;;;;;61.40;34.25;;;8.60;99.90;;;;;;4969259;28;20216;-76
2022/03/29 04:25:12;;;;;;;61.05;32.65;;;8.60;99.90;;;;;;4950621;29;20047;-75
2022/03/29 04:27:39;;;;;;;87.68;58.92;;;8.60;99.90;;;;;;4941815;28;20048;-68
2022/03/29 04:30:09;;;;;;;75.82;43.47;;;8.70;99.90;;;;;;4958152;28;20055;-67
2022/03/29 04:32:37;;;;;;;62.50;40.00;;;8.70;99.90;;;;;;4939047;29;20062;-70
2022/03/29 04:35:05;;;;;;;60.85;35.60;;;8.70;99.90;;;;;;4927460;29;20066;-70
2022/03/29 04:37:31;;;;;;;61.88;35.97;;;8.70;99.90;;;;;;4938323;29;20044;-70
2022/03/29 04:39:58;;;;;;;62.92;34.22;;;8.70;99.90;;;;;;4935553;29;20040;-71
2022/03/29 04:42:25;;;;;;;65.50;39.25;;;8.70;99.90;;;;;;4970295;28;20106;-72
2022/03/29 04:44:52;;;;;;;61.25;38.35;;;8.80;99.90;;;;;;4960649;28;20047;-70
2022/03/29 04:47:19;;;;;;;63.88;36.42;;;8.80;99.90;;;;;;4958997;28;20043;-69
2022/03/29 04:49:47;;;;;;;69.63;37.92;;;8.70;99.90;;;;;;4969692;28;20233;-70
2022/03/29 04:52:14;;;;;;;63.03;34.30;;;8.70;99.90;;;;;;4952745;28;20040;-70
2022/03/29 04:54:41;;;;;;;70.18;39.83;;;8.70;99.90;;;;;;4941534;29;20074;-72
2022/03/29 04:57:08;;;;;;;68.25;37.08;;;8.60;99.90;;;;;;4970245;28;20440;-72
2022/03/29 04:59:35;;;;;;;61.83;36.13;;;8.60;99.90;;;;;;4952187;29;20046;-71
2022/03/29 05:02:02;;;;;;;64.43;36.70;;;8.60;99.90;;;;;;4953701;29;20407;-70
2022/03/29 05:04:29;;;;;;;63.17;34.20;;;8.50;99.90;;;;;;4948061;29;20040;-70
2022/03/29 05:06:56;;;;;;;60.22;34.72;;;8.50;99.90;;;;;;4926344;29;20492;-69
2022/03/29 05:09:23;;;;;;;65.30;36.35;;;8.40;99.90;;;;;;4943298;28;20051;-69
2022/03/29 05:11:50;;;;;;;58.13;33.40;;;8.40;99.90;;;;;;4944237;29;20495;-70
2022/03/29 05:14:17;;;;;;;65.40;36.20;;;8.40;99.90;;;;;;4958645;28;20058;-70
2022/03/29 05:16:44;;;;;;;61.22;36.30;;;8.40;99.90;;;;;;4954498;28;20051;-69
2022/03/29 05:19:11;;;;;;;61.20;34.05;;;8.40;99.90;;;;;;4966788;28;20043;-70
2022/03/29 05:21:38;;;;;;;55.53;32.67;;;8.30;99.90;;;;;;4939070;29;20086;-72
2022/03/29 05:24:05;;;;;;;55.38;33.13;;;8.30;99.90;;;;;;4946408;28;20069;-70
2022/03/29 05:26:32;;;;;;;70.13;37.13;;;8.30;99.90;;;;;;4922076;29;20233;-71
2022/03/29 05:28:59;;;;;;;55.90;33.22;;;8.20;99.90;;;;;;4953527;29;20047;-70
2022/03/29 05:31:26;;;;;;;58.05;33.90;;;8.30;99.90;;;;;;4937520;29;20392;-70
2022/03/29 05:33:53;;;;;;;53.00;31.88;;;8.30;99.90;;;;;;4934471;29;20044;-70
2022/03/29 05:36:20;;;;;;;60.63;33.72;;;8.30;99.90;;;;;;4952638;29;20488;-73
2022/03/29 05:38:52;;;;;;;56.85;31.70;;;8.20;99.90;;;;;;4944422;29;20500;-70
2022/03/29 05:41:22;;;;;;;54.22;32.15;;;8.20;99.90;;;;;;4947307;29;20057;-70
2022/03/29 05:43:49;;;;;;;55.30;31.08;;;8.10;99.90;;;;;;4949323;28;20066;-69
2022/03/29 05:49:02;;;;;;;56.13;30.85;;;8.20;99.90;;;;;;4956005;28;20043;-70
2022/03/29 05:51:29;;;;;;;59.25;32.65;;;8.20;99.90;;;;;;4961042;28;20051;-70
2022/03/29 05:53:57;;;;;;;60.53;35.20;;;8.10;99.90;;;;;;4950797;29;20047;-70
2022/03/29 05:56:24;;;;;;;60.13;34.42;;;8.10;99.90;;;;;;4937139;29;20410;-70
2022/03/29 05:58:50;;;;;;;118.45;67.47;;;8.20;99.90;;;;;;4940478;29;20055;-70
2022/03/29 06:01:20;;;;;;;65.88;38.60;;;8.10;99.90;;;;;;4934661;29;20052;-68
2022/03/29 06:03:47;;;;;;;55.50;32.95;;;8.10;99.90;;;;;;4942319;29;20098;-67
2022/03/29 06:06:14;;;;;;;57.90;35.65;;;8.10;99.90;;;;;;4966132;28;20094;-69
2022/03/29 06:08:41;;;;;;;62.67;35.65;;;8.10;99.90;;;;;;4958666;28;20043;-68
2022/03/29 06:11:08;;;;;;;54.80;31.50;;;8.10;99.90;;;;;;4944408;28;20047;-69
2022/03/29 06:13:36;;;;;;;59.88;34.03;;;8.20;99.90;;;;;;4949225;28;20388;-68
2022/03/29 06:16:03;;;;;;;137.93;97.65;;;8.10;99.90;;;;;;4935113;29;20057;-70
2022/03/29 06:18:31;;;;;;;62.47;34.00;;;8.10;99.90;;;;;;4952969;28;20047;-68
2022/03/29 06:20:58;;;;;;;57.78;31.80;;;8.10;99.90;;;;;;4957296;28;20043;-68
2022/03/29 06:23:26;;;;;;;55.83;33.15;;;8.10;99.90;;;;;;4935713;29;20069;-69
2022/03/29 06:25:55;;;;;;;51.35;30.60;;;8.10;99.90;;;;;;4943865;29;20070;-69
2022/03/29 06:28:22;;;;;;;59.20;31.05;;;8.10;99.90;;;;;;4954931;28;20129;-66
2022/03/29 06:30:49;;;;;;;63.47;32.53;;;8.00;99.90;;;;;;4942017;28;20059;-65
2022/03/29 06:33:16;;;;;;;50.58;28.42;;;8.10;99.90;;;;;;4939523;29;20051;-68
2022/03/29 06:35:43;;;;;;;63.67;33.22;;;8.00;99.90;;;;;;4942570;28;20131;-68
2022/03/29 06:38:10;;;;;;;53.60;28.15;;;8.00;99.90;;;;;;4965011;28;20051;-70
2022/03/29 06:40:37;;;;;;;58.05;32.00;;;8.00;99.90;;;;;;4942448;28;20499;-66
2022/03/29 06:43:04;;;;;;;54.25;30.38;;;8.10;99.90;;;;;;4953047;28;20045;-67
2022/03/29 06:45:31;;;;;;;60.33;29.70;;;8.20;99.90;;;;;;4925004;29;20039;-66
2022/03/29 06:47:58;;;;;;;52.22;28.58;;;8.20;99.90;;;;;;4945452;28;20051;-66
2022/03/29 06:50:25;;;;;;;52.90;29.42;;;8.20;99.90;;;;;;4951630;29;20827;-67
2022/03/29 06:52:53;;;;;;;46.10;28.17;;;8.20;99.90;;;;;;4945304;28;20098;-64
2022/03/29 06:55:25;;;;;;;52.00;29.50;;;8.20;99.90;;;;;;4953700;28;20051;-68
2022/03/29 06:57:52;;;;;;;48.42;30.05;;;8.30;99.90;;;;;;4953297;29;20051;-65
2022/03/29 07:00:20;;;;;;;54.35;29.20;;;8.30;99.90;;;;;;4963747;28;20039;-67
2022/03/29 07:02:48;;;;;;;53.78;29.85;;;8.40;99.90;;;;;;4935650;29;20142;-70
2022/03/29 07:05:15;;;;;;;48.55;27.15;;;8.40;99.90;;;;;;4938656;29;20043;-70
2022/03/29 07:07:42;;;;;;;47.15;28.17;;;8.40;99.90;;;;;;4950666;29;20526;-70
2022/03/29 07:12:59;;;;;;;47.80;27.60;;;8.40;99.90;;;;;;4948496;29;20047;-71
2022/03/29 07:15:26;;;;;;;44.15;26.80;;;8.50;99.90;;;;;;4917141;29;20058;-71
2022/03/29 07:17:53;;;;;;;43.05;24.92;;;8.50;99.90;;;;;;4962725;28;20059;-71
2022/03/29 07:20:21;;;;;;;103.32;70.57;;;8.60;99.90;;;;;;4951186;28;20094;-75
2022/03/29 07:22:51;;;;;;;54.10;28.55;;;8.60;99.90;;;;;;4922102;28;20054;-75
2022/03/29 07:25:19;;;;;;;45.83;27.95;;;8.70;99.90;;;;;;4951347;29;20486;-72
2022/03/29 07:27:47;;;;;;;41.10;24.85;;;8.60;99.90;;;;;;4930331;29;20484;-67
2022/03/29 07:30:14;;;;;;;46.08;25.83;;;8.60;99.90;;;;;;4933579;29;20058;-70
2022/03/29 07:32:48;;;;;;;44.58;27.17;;;8.70;99.90;;;;;;4950646;28;20134;-69
2022/03/29 07:35:17;;;;;;;45.33;25.83;;;8.60;99.90;;;;;;4952389;28;20049;-70
2022/03/29 07:37:44;;;;;;;47.60;24.50;;;8.60;99.90;;;;;;4939901;29;20490;-76
2022/03/29 07:40:12;;;;;;;52.22;27.85;;;8.60;99.90;;;;;;4957538;28;20047;-69
2022/03/29 07:42:40;;;;;;;46.22;27.40;;;8.70;99.90;;;;;;4929409;29;20433;-70
2022/03/29 07:45:09;;;;;;;58.45;31.45;;;8.80;99.90;;;;;;4948886;28;20074;-71
2022/03/29 07:47:37;;;;;;;47.20;27.53;;;8.70;99.90;;;;;;4955773;28;20420;-71
2022/03/29 07:50:25;;;;;;;49.83;28.00;;;8.70;99.90;;;;;;4947801;29;20388;-68
2022/03/29 07:53:00;;;;;;;354.20;245.27;;;8.70;99.90;;;;;;4945509;28;20055;-69
2022/03/29 07:55:27;;;;;;;74.55;42.25;;;8.80;99.90;;;;;;4968060;28;20056;-69
2022/03/29 07:58:09;;;;;;;56.33;33.58;;;8.80;99.90;;;;;;4940670;29;20063;-76
2022/03/29 08:00:36;;;;;;;56.00;30.17;;;8.80;99.90;;;;;;4935428;29;20078;-76
2022/03/29 08:03:07;;;;;;;55.42;31.08;;;8.90;99.90;;;;;;4949077;28;20052;-76
2022/03/29 08:05:35;;;;;;;56.92;32.25;;;8.80;99.90;;;;;;4946843;29;20109;-77
2022/03/29 08:08:03;;;;;;;53.33;30.48;;;8.80;99.90;;;;;;4956009;29;20134;-76
2022/03/29 08:10:30;;;;;;;64.80;33.55;;;8.90;99.90;;;;;;4950213;29;20415;-63
2022/03/29 08:12:59;;;;;;;56.92;30.95;;;8.90;99.90;;;;;;4936648;29;20066;-71
2022/03/29 08:15:26;;;;;;;49.47;31.42;;;9.00;99.90;;;;;;4963967;28;20051;-72
2022/03/29 08:17:58;;;;;;;46.72;29.05;;;8.90;99.90;;;;;;4962420;28;20130;-70
2022/03/29 08:20:26;;;;;;;58.00;33.03;;;9.00;99.90;;;;;;4955619;28;20044;-71
2022/03/29 08:22:58;;;;;;;54.10;31.25;;;8.90;99.90;;;;;;4948912;28;20043;-72
2022/03/29 08:25:26;;;;;;;58.42;33.20;;;8.90;99.90;;;;;;4935968;29;20078;-72
2022/03/29 08:27:58;;;;;;;51.67;29.42;;;8.90;99.90;;;;;;4951268;29;20056;-69
2022/03/29 08:30:26;;;;;;;51.58;29.40;;;8.90;99.90;;;;;;4951029;29;20067;-74
2022/03/29 08:32:53;;;;;;;55.45;32.42;;;8.90;99.90;;;;;;4949490;29;20112;-69
2022/03/29 08:35:27;;;;;;;45.47;28.88;;;8.90;99.90;;;;;;4966114;28;20051;-69
2022/03/29 08:37:54;;;;;;;50.25;30.13;;;9.00;99.90;;;;;;4951968;28;20116;-71
2022/03/29 08:40:41;;;;;;;52.60;31.50;;;9.10;99.90;;;;;;4968012;28;20051;-70
2022/03/29 08:43:09;;;;;;;46.08;29.33;;;9.20;99.90;;;;;;4939144;29;20051;-71
2022/03/29 08:45:36;;;;;;;43.78;26.58;;;9.20;99.90;;;;;;4936378;29;20052;-72
2022/03/29 08:48:03;;;;;;;37.88;24.70;;;9.10;99.90;;;;;;4941233;29;20050;-72
2022/03/29 08:50:36;;;;;;;39.33;23.90;;;9.20;99.90;;;;;;4953408;29;20047;-68
2022/03/29 08:53:04;;;;;;;43.78;27.70;;;9.20;99.90;;;;;;4947625;29;20161;-70
2022/03/29 08:55:31;;;;;;;39.85;25.40;;;9.30;99.90;;;;;;4940559;29;20044;-72
2022/03/29 08:57:58;;;;;;;41.85;23.48;;;9.30;99.90;;;;;;4945610;28;20056;-68
2022/03/29 09:00:25;;;;;;;39.92;23.15;;;9.40;99.90;;;;;;4940698;29;20400;-72
2022/03/29 09:02:52;;;;;;;45.17;26.02;;;9.50;99.90;;;;;;4970996;28;20134;-73
2022/03/29 09:05:29;;;;;;;42.63;26.45;;;9.50;99.90;;;;;;4971421;28;20055;-75
2022/03/29 09:07:58;;;;;;;50.00;27.58;;;9.40;99.90;;;;;;4954202;28;20050;-70
2022/03/29 09:10:49;;;;;;;43.17;24.40;;;9.50;99.90;;;;;;4946449;28;20050;-78
2022/03/29 09:13:26;;;;;;;46.58;27.58;;;9.50;99.90;;;;;;4951796;29;20047;-70
2022/03/29 09:15:58;;;;;;;43.42;27.40;;;9.50;99.90;;;;;;4946790;29;20047;-71
2022/03/29 09:18:25;;;;;;;46.40;27.40;;;9.40;99.90;;;;;;4967349;28;20066;-69
2022/03/29 09:21:13;;;;;;;47.47;28.02;;;9.40;99.90;;;;;;4949204;29;20047;-72
2022/03/29 09:23:41;;;;;;;40.78;26.23;;;9.40;99.90;;;;;;4968575;28;20450;-72
2022/03/29 09:26:27;;;;;;;48.42;27.85;;;9.30;99.90;;;;;;4936919;29;20089;-72
2022/03/29 09:28:54;;;;;;;41.08;27.08;;;9.40;99.90;;;;;;4922250;29;20043;-70
2022/03/29 09:31:22;;;;;;;45.75;29.30;;;9.40;99.90;;;;;;4949347;29;20126;-75
2022/03/29 09:33:50;;;;;;;40.60;28.58;;;9.40;99.90;;;;;;4951442;29;20043;-70
2022/03/29 09:36:20;;;;;;;50.05;30.17;;;9.40;99.90;;;;;;4955728;28;20059;-74
2022/03/29 09:38:48;;;;;;;48.58;29.33;;;9.50;99.90;;;;;;4949608;29;20081;-77
2022/03/29 09:41:26;;;;;;;47.22;28.23;;;9.60;99.90;;;;;;4942362;29;20728;-75
2022/03/29 09:44:10;;;;;;;51.10;28.98;;;9.70;99.90;;;;;;4939968;29;20055;-75
2022/03/29 09:47:04;;;;;;;46.55;30.55;;;9.70;99.90;;;;;;4969940;28;20055;-72
2022/03/29 09:49:57;;;;;;;50.80;28.77;;;9.70;99.90;;;;;;4934098;29;20444;-76
2022/03/29 09:52:28;;;;;;;50.10;30.52;;;9.70;99.90;;;;;;4950231;29;20059;-74
2022/03/29 09:55:21;;;;;;;42.45;27.88;;;9.70;99.90;;;;;;4954009;29;20051;-75
2022/03/29 09:57:52;;;;;;;47.08;30.65;;;9.70;99.90;;;;;;4963973;28;20055;-74
2022/03/29 10:00:39;;;;;;;46.42;30.40;;;9.70;99.90;;;;;;4953165;29;20054;-72
2022/03/29 10:03:08;;;;;;;52.35;30.58;;;9.70;99.90;;;;;;4938377;29;20053;-73
2022/03/29 10:05:37;;;;;;;44.20;29.08;;;9.70;99.90;;;;;;4953694;29;20055;-73
2022/03/29 10:10:53;;;;;;;44.78;30.02;;;9.70;99.90;;;;;;4959614;28;20066;-68
2022/03/29 10:13:23;;;;;;;48.20;28.10;;;9.70;99.90;;;;;;4946343;28;20545;-69
2022/03/29 10:15:53;;;;;;;42.83;29.05;;;9.70;99.90;;;;;;4954599;28;20050;-75
2022/03/29 10:18:23;;;;;;;45.40;28.55;;;9.70;99.90;;;;;;4951477;29;20039;-67
2022/03/29 10:20:50;;;;;;;54.00;31.08;;;9.80;99.90;;;;;;4944607;29;20491;-72
2022/03/29 10:23:19;;;;;;;46.35;29.52;;;9.70;99.90;;;;;;4944305;29;20098;-73
2022/03/29 10:25:46;;;;;;;48.53;29.60;;;9.70;99.90;;;;;;4952375;29;20063;-66
2022/03/29 10:28:13;;;;;;;48.05;29.80;;;9.70;99.90;;;;;;4939481;29;20167;-73
2022/03/29 10:30:41;;;;;;;47.00;30.20;;;9.70;99.90;;;;;;4951558;29;20048;-71
2022/03/29 10:33:34;;;;;;;50.08;30.60;;;9.70;99.90;;;;;;4941734;29;20506;-72
2022/03/29 10:36:12;;;;;;;46.28;28.58;;;9.80;99.90;;;;;;4946166;29;20047;-73
2022/03/29 10:38:49;;;;;;;48.40;29.50;;;9.90;99.90;;;;;;4949955;29;20051;-71
2022/03/29 10:41:28;;;;;;;48.65;31.70;;;9.90;99.90;;;;;;4960071;28;20039;-69
2022/03/29 10:44:06;;;;;;;50.88;33.65;;;9.80;99.90;;;;;;4952927;29;20086;-72
2022/03/29 10:46:47;;;;;;;52.58;32.95;;;9.70;99.90;;;;;;4949493;29;20047;-68
2022/03/29 10:49:24;;;;;;;51.60;31.40;;;9.70;99.90;;;;;;4968168;28;20499;-69
2022/03/29 10:51:57;;;;;;;59.72;32.90;;;9.70;99.90;;;;;;4946573;29;20484;-68
2022/03/29 10:54:24;;;;;;;44.67;29.60;;;9.70;99.90;;;;;;4952825;29;20079;-67
2022/03/29 10:57:01;;;;;;;60.03;33.83;;;9.80;99.90;;;;;;4950543;29;20059;-69
2022/03/29 10:59:29;;;;;;;46.90;29.90;;;9.90;99.90;;;;;;4952127;29;20054;-71
2022/03/29 11:02:12;;;;;;;61.70;30.80;;;9.90;99.90;;;;;;4949910;29;20047;-70
2022/03/29 11:05:05;;;;;;;47.55;29.88;;;9.90;99.90;;;;;;4949966;29;20047;-69
2022/03/29 11:07:55;;;;;;;49.58;32.22;;;9.90;99.90;;;;;;4954202;28;20553;-70
2022/03/29 11:10:23;;;;;;;49.80;30.80;;;9.80;99.90;;;;;;4947765;28;20050;-67
2022/03/29 11:12:57;;;;;;;55.33;32.17;;;9.80;99.90;;;;;;4936082;29;20064;-72
2022/03/29 11:15:25;;;;;;;55.13;33.67;;;9.90;99.90;;;;;;4937737;29;20051;-71
2022/03/29 11:17:56;;;;;;;46.40;29.45;;;9.90;99.90;;;;;;4945364;29;20061;-68
2022/03/29 11:20:29;;;;;;;49.42;31.85;;;9.80;99.90;;;;;;4943465;29;20400;-64
2022/03/29 11:23:09;;;;;;;50.13;30.67;;;9.80;99.90;;;;;;4961935;28;20069;-76
2022/03/29 11:25:41;;;;;;;52.33;31.27;;;9.80;99.90;;;;;;4943189;29;20499;-74
2022/03/29 11:28:13;;;;;;;50.83;31.95;;;9.90;99.90;;;;;;4949921;29;20050;-71
2022/03/29 11:30:41;;;;;;;50.42;31.00;;;10.00;99.90;;;;;;4952355;29;20058;-71
2022/03/29 11:33:09;;;;;;;49.22;31.13;;;10.10;99.90;;;;;;4932112;29;20212;-70
2022/03/29 11:35:38;;;;;;;48.03;29.60;;;10.10;99.90;;;;;;4915613;29;20063;-72
2022/03/29 11:38:09;;;;;;;51.83;32.27;;;10.20;99.90;;;;;;4953517;28;20055;-70
2022/03/29 11:40:36;;;;;;;189.80;152.77;;;10.20;99.90;;;;;;4952046;28;20055;-66
2022/03/29 11:43:10;;;;;;;78.68;50.25;;;10.20;99.90;;;;;;4944118;29;20746;-67
2022/03/29 11:45:42;;;;;;;117.57;73.60;;;10.30;99.90;;;;;;4943553;28;20407;-67
2022/03/29 11:48:12;;;;;;;61.22;36.53;;;10.30;99.90;;;;;;4949584;29;20109;-69
2022/03/29 11:50:45;;;;;;;62.15;36.85;;;10.40;99.90;;;;;;4950680;29;20066;-70
2022/03/29 11:53:27;;;;;;;56.08;33.45;;;10.50;99.90;;;;;;4960424;28;20078;-71
2022/03/29 11:55:59;;;;;;;56.00;33.17;;;10.50;99.90;;;;;;4934193;29;20065;-68
2022/03/29 11:58:28;;;;;;;56.15;35.80;;;10.60;99.90;;;;;;4947190;28;20053;-71
2022/03/29 12:01:07;;;;;;;57.10;35.17;;;10.60;99.90;;;;;;4954047;28;20044;-70
2022/03/29 12:03:43;;;;;;;46.83;31.30;;;10.60;99.90;;;;;;4952715;28;20055;-70
2022/03/29 12:06:14;;;;;;;51.38;33.15;;;10.70;99.90;;;;;;4940025;29;20107;-68
2022/03/29 12:08:47;;;;;;;47.22;32.28;;;10.60;99.90;;;;;;4954952;28;20056;-67
2022/03/29 12:11:19;;;;;;;44.60;30.38;;;10.50;99.90;;;;;;4957064;28;20058;-67
2022/03/29 12:13:46;;;;;;;50.83;31.90;;;10.50;99.90;;;;;;4937328;29;20050;-68
2022/03/29 12:16:21;;;;;;;49.40;31.42;;;10.50;99.90;;;;;;4946645;29;20047;-68
2022/03/29 12:18:49;;;;;;;49.05;30.35;;;10.70;99.90;;;;;;4941302;29;20094;-68
2022/03/29 12:21:18;;;;;;;48.53;30.25;;;10.60;99.90;;;;;;4956298;28;20047;-68
2022/03/29 12:23:45;;;;;;;48.50;29.58;;;10.70;99.90;;;;;;4946473;29;20061;-69
2022/03/29 12:26:13;;;;;;;64.88;43.67;;;10.80;99.90;;;;;;4953473;28;20074;-68
2022/03/29 12:28:40;;;;;;;46.72;32.30;;;10.90;99.90;;;;;;4941123;29;20155;-69
2022/03/29 12:31:11;;;;;;;52.78;30.88;;;11.00;99.90;;;;;;4934698;29;20047;-69
2022/03/29 12:33:39;;;;;;;40.22;26.25;;;11.00;99.90;;;;;;4931528;29;20055;-68
2022/03/29 12:36:11;;;;;;;40.83;27.40;;;10.90;99.90;;;;;;4950489;29;20063;-69
2022/03/29 12:38:42;;;;;;;43.03;27.42;;;10.90;99.90;;;;;;4948238;28;20053;-68
2022/03/29 12:41:12;;;;;;;44.47;27.55;;;10.90;99.90;;;;;;4939106;29;20473;-70
2022/03/29 12:43:40;;;;;;;41.67;27.17;;;11.00;99.90;;;;;;4947780;29;20051;-70
2022/03/29 12:46:09;;;;;;;45.08;28.33;;;11.00;99.90;;;;;;4936452;29;20640;-69
2022/03/29 12:48:41;;;;;;;48.97;34.00;;;11.00;99.90;;;;;;4948797;29;20054;-68
2022/03/29 12:51:09;;;;;;;48.13;32.50;;;11.00;99.90;;;;;;4919760;29;20055;-68
2022/03/29 12:53:39;;;;;;;47.65;30.40;;;11.00;99.90;;;;;;4938195;29;20066;-69
2022/03/29 12:56:10;;;;;;;52.30;31.70;;;11.00;99.90;;;;;;4952787;29;20087;-68
2022/03/29 12:58:38;;;;;;;53.47;29.88;;;11.10;99.90;;;;;;4955080;28;20478;-68